sensor_id;sensor_type;location;lat;lon;timestamp;P1;durP1;ratioP1;P2;durP2;ratioP2
61739;SDS011;47645;45.288;12.038;2022-11-06T00:06:47;19.6;;;13.2;;
61739;SDS011;47645;45.288;12.038;2022-11-06T00:14:58;20.0;;;11.5;;
61739;SDS011;47645;45.288;12.038;2022-11-06T00:24:59;19.4;;;11.3;;
61739;SDS011;47645;45.288;12.038;2022-11-06T00:35:00;20.8;;;12.1;;
61739;SDS011;47645;45.288;12.038;2022-11-06T00:45:00;18.6;;;11.5;;
61739;SDS011;47645;45.288;12.038;2022-11-06T00:55:01;16.9;;;10.3;;
61739;SDS011;47645;45.288;12.038;2022-11-06T01:05:02;22.9;;;12.8;;
61739;SDS011;47645;45.288;12.038;2022-11-06T01:15:03;22.3;;;12.7;;
61739;SDS011;47645;45.288;12.038;2022-11-06T01:25:03;17.9;;;11.6;;
61739;SDS011;47645;45.288;12.038;2022-11-06T01:30:04;20.6;;;11.4;;
61739;SDS011;47645;45.288;12.038;2022-11-06T01:40:05;19.2;;;11.3;;
61739;SDS011;47645;45.288;12.038;2022-11-06T01:50:06;12.2;;;7.6;;
61739;SDS011;47645;45.288;12.038;2022-11-06T02:00:06;12.4;;;8.6;;
61739;SDS011;47645;45.288;12.038;2022-11-06T02:10:07;12.8;;;7.1;;
61739;SDS011;47645;45.288;12.038;2022-11-06T02:20:09;13.2;;;7.8;;
61739;SDS011;47645;45.288;12.038;2022-11-06T02:30:08;14.7;;;8.3;;
61739;SDS011;47645;45.288;12.038;2022-11-06T02:40:09;13.3;;;7.7;;
61739;SDS011;47645;45.288;12.038;2022-11-06T02:50:11;19.1;;;10.9;;
61739;SDS011;47645;45.288;12.038;2022-11-06T03:00:10;18.8;;;10.8;;
61739;SDS011;47645;45.288;12.038;2022-11-06T03:10:10;14.2;;;8.9;;
61739;SDS011;47645;45.288;12.038;2022-11-06T03:20:15;12.3;;;7.8;;
61739;SDS011;47645;45.288;12.038;2022-11-06T03:30:12;16.3;;;9.9;;
61739;SDS011;47645;45.288;12.038;2022-11-06T03:40:13;17.0;;;10.2;;
61739;SDS011;47645;45.288;12.038;2022-11-06T03:50:14;17.6;;;10.3;;
61739;SDS011;47645;45.288;12.038;2022-11-06T04:00:14;13.7;;;8.4;;
61739;SDS011;47645;45.288;12.038;2022-11-06T04:21:23;12.3;;;8.4;;
61739;SDS011;47645;45.288;12.038;2022-11-06T04:30:15;12.7;;;8.1;;
61739;SDS011;47645;45.288;12.038;2022-11-06T04:40:16;10.4;;;7.0;;
61739;SDS011;47645;45.288;12.038;2022-11-06T04:50:16;11.5;;;7.5;;
61739;SDS011;47645;45.288;12.038;2022-11-06T05:00:17;13.5;;;8.3;;
61739;SDS011;47645;45.288;12.038;2022-11-06T05:10:17;11.0;;;7.6;;
61739;SDS011;47645;45.288;12.038;2022-11-06T05:20:18;8.9;;;6.1;;
61739;SDS011;47645;45.288;12.038;2022-11-06T05:30:19;7.4;;;5.3;;
61739;SDS011;47645;45.288;12.038;2022-11-06T05:40:19;11.0;;;6.8;;
61739;SDS011;47645;45.288;12.038;2022-11-06T05:50:20;10.4;;;7.0;;
61739;SDS011;47645;45.288;12.038;2022-11-06T06:00:20;10.7;;;6.6;;
61739;SDS011;47645;45.288;12.038;2022-11-06T06:10:21;9.9;;;6.6;;
61739;SDS011;47645;45.288;12.038;2022-11-06T06:20:21;10.3;;;6.0;;
61739;SDS011;47645;45.288;12.038;2022-11-06T06:30:23;11.1;;;6.1;;
61739;SDS011;47645;45.288;12.038;2022-11-06T06:40:23;10.8;;;5.9;;
61739;SDS011;47645;45.288;12.038;2022-11-06T06:50:23;9.0;;;5.6;;
61739;SDS011;47645;45.288;12.038;2022-11-06T07:00:24;6.9;;;4.8;;
61739;SDS011;47645;45.288;12.038;2022-11-06T07:10:24;6.8;;;4.1;;
61739;SDS011;47645;45.288;12.038;2022-11-06T07:20:25;7.5;;;4.4;;
61739;SDS011;47645;45.288;12.038;2022-11-06T07:30:26;6.0;;;4.1;;
61739;SDS011;47645;45.288;12.038;2022-11-06T07:40:27;7.7;;;4.1;;
61739;SDS011;47645;45.288;12.038;2022-11-06T07:50:27;6.3;;;3.9;;
61739;SDS011;47645;45.288;12.038;2022-11-06T08:00:27;6.8;;;3.7;;
61739;SDS011;47645;45.288;12.038;2022-11-06T08:10:28;4.9;;;3.7;;
61739;SDS011;47645;45.288;12.038;2022-11-06T08:20:29;5.2;;;3.4;;
61739;SDS011;47645;45.288;12.038;2022-11-06T08:30:30;5.2;;;3.0;;
61739;SDS011;47645;45.288;12.038;2022-11-06T08:40:30;5.2;;;3.2;;
61739;SDS011;47645;45.288;12.038;2022-11-06T08:50:32;4.9;;;3.0;;
61739;SDS011;47645;45.288;12.038;2022-11-06T09:00:31;5.6;;;3.2;;
61739;SDS011;47645;45.288;12.038;2022-11-06T09:10:32;4.5;;;2.6;;
61739;SDS011;47645;45.288;12.038;2022-11-06T09:20:32;4.0;;;2.3;;
61739;SDS011;47645;45.288;12.038;2022-11-06T09:30:33;3.6;;;2.4;;
61739;SDS011;47645;45.288;12.038;2022-11-06T09:40:35;4.2;;;2.1;;
61739;SDS011;47645;45.288;12.038;2022-11-06T09:50:36;3.8;;;2.1;;
61739;SDS011;47645;45.288;12.038;2022-11-06T10:00:36;2.5;;;1.6;;
61739;SDS011;47645;45.288;12.038;2022-11-06T10:10:39;3.6;;;1.7;;
61739;SDS011;47645;45.288;12.038;2022-11-06T10:20:39;2.3;;;1.3;;
61739;SDS011;47645;45.288;12.038;2022-11-06T10:30:39;2.1;;;0.9;;
61739;SDS011;47645;45.288;12.038;2022-11-06T10:40:41;2.1;;;1.0;;
61739;SDS011;47645;45.288;12.038;2022-11-06T10:50:41;2.2;;;1.1;;
61739;SDS011;47645;45.288;12.038;2022-11-06T11:00:41;2.0;;;0.9;;
61739;SDS011;47645;45.288;12.038;2022-11-06T11:10:42;2.4;;;0.9;;
61739;SDS011;47645;45.288;12.038;2022-11-06T11:20:44;2.3;;;0.8;;
61739;SDS011;47645;45.288;12.038;2022-11-06T11:30:46;2.3;;;0.9;;
61739;SDS011;47645;45.288;12.038;2022-11-06T11:40:45;2.1;;;0.8;;
61739;SDS011;47645;45.288;12.038;2022-11-06T11:50:46;1.8;;;1.0;;
61739;SDS011;47645;45.288;12.038;2022-11-06T12:00:50;2.7;;;1.2;;
61739;SDS011;47645;45.288;12.038;2022-11-06T12:10:48;2.3;;;0.9;;
61739;SDS011;47645;45.288;12.038;2022-11-06T12:20:49;2.4;;;1.4;;
61739;SDS011;47645;45.288;12.038;2022-11-06T12:30:53;3.1;;;1.1;;
61739;SDS011;47645;45.288;12.038;2022-11-06T12:40:54;2.3;;;1.2;;
61739;SDS011;47645;45.288;12.038;2022-11-06T12:50:54;3.0;;;1.3;;
61739;SDS011;47645;45.288;12.038;2022-11-06T13:00:59;3.7;;;1.4;;
61739;SDS011;47645;45.288;12.038;2022-11-06T13:11:00;2.4;;;1.4;;
61739;SDS011;47645;45.288;12.038;2022-11-06T13:20:58;2.4;;;1.3;;
61739;SDS011;47645;45.288;12.038;2022-11-06T13:30:58;3.1;;;1.3;;
61739;SDS011;47645;45.288;12.038;2022-11-06T13:40:58;2.6;;;1.2;;
61739;SDS011;47645;45.288;12.038;2022-11-06T13:50:59;2.3;;;1.2;;
61739;SDS011;47645;45.288;12.038;2022-11-06T14:01:02;1.5;;;0.9;;
61739;SDS011;47645;45.288;12.038;2022-11-06T14:11:02;2.5;;;0.9;;
61739;SDS011;47645;45.288;12.038;2022-11-06T14:21:24;1.7;;;0.9;;
61739;SDS011;47645;45.288;12.038;2022-11-06T14:31:02;1.9;;;0.7;;
61739;SDS011;47645;45.288;12.038;2022-11-06T14:41:53;2.5;;;1.2;;
61739;SDS011;47645;45.288;12.038;2022-11-06T14:51:05;2.5;;;1.7;;
61739;SDS011;47645;45.288;12.038;2022-11-06T15:01:11;3.1;;;1.6;;
61739;SDS011;47645;45.288;12.038;2022-11-06T15:11:06;4.7;;;1.9;;
61739;SDS011;47645;45.288;12.038;2022-11-06T15:21:08;2.3;;;1.3;;
61739;SDS011;47645;45.288;12.038;2022-11-06T15:31:11;2.2;;;1.2;;
61739;SDS011;47645;45.288;12.038;2022-11-06T15:41:10;1.7;;;1.0;;
61739;SDS011;47645;45.288;12.038;2022-11-06T15:51:26;1.6;;;0.9;;
61739;SDS011;47645;45.288;12.038;2022-11-06T16:01:11;2.2;;;1.0;;
61739;SDS011;47645;45.288;12.038;2022-11-06T16:11:13;2.0;;;1.2;;
61739;SDS011;47645;45.288;12.038;2022-11-06T16:21:13;2.1;;;1.2;;
61739;SDS011;47645;45.288;12.038;2022-11-06T16:31:14;3.6;;;2.1;;
61739;SDS011;47645;45.288;12.038;2022-11-06T16:41:57;2.9;;;1.6;;
61739;SDS011;47645;45.288;12.038;2022-11-06T16:51:27;3.5;;;2.4;;
61739;SDS011;47645;45.288;12.038;2022-11-06T17:01:16;10.0;;;5.7;;
61739;SDS011;47645;45.288;12.038;2022-11-06T17:11:20;10.4;;;6.7;;
61739;SDS011;47645;45.288;12.038;2022-11-06T17:21:19;9.9;;;5.9;;
61739;SDS011;47645;45.288;12.038;2022-11-06T17:31:19;12.3;;;6.4;;
61739;SDS011;47645;45.288;12.038;2022-11-06T17:41:29;9.9;;;6.2;;
61739;SDS011;47645;45.288;12.038;2022-11-06T17:51:57;8.3;;;4.8;;
61739;SDS011;47645;45.288;12.038;2022-11-06T18:01:21;11.2;;;7.0;;
61739;SDS011;47645;45.288;12.038;2022-11-06T18:11:22;11.5;;;6.1;;
61739;SDS011;47645;45.288;12.038;2022-11-06T18:21:23;10.9;;;5.4;;
61739;SDS011;47645;45.288;12.038;2022-11-06T18:31:23;14.0;;;8.8;;
61739;SDS011;47645;45.288;12.038;2022-11-06T18:41:24;23.1;;;14.0;;
61739;SDS011;47645;45.288;12.038;2022-11-06T18:51:26;16.9;;;8.8;;
61739;SDS011;47645;45.288;12.038;2022-11-06T19:01:28;14.9;;;8.7;;
61739;SDS011;47645;45.288;12.038;2022-11-06T19:11:27;13.3;;;8.4;;
61739;SDS011;47645;45.288;12.038;2022-11-06T19:21:28;16.6;;;9.7;;
61739;SDS011;47645;45.288;12.038;2022-11-06T19:31:28;15.3;;;9.9;;
61739;SDS011;47645;45.288;12.038;2022-11-06T19:41:29;14.0;;;8.1;;
61739;SDS011;47645;45.288;12.038;2022-11-06T19:51:30;13.8;;;8.4;;
61739;SDS011;47645;45.288;12.038;2022-11-06T20:01:35;11.4;;;7.2;;
61739;SDS011;47645;45.288;12.038;2022-11-06T20:11:32;7.1;;;3.7;;
61739;SDS011;47645;45.288;12.038;2022-11-06T20:21:32;7.3;;;4.5;;
61739;SDS011;47645;45.288;12.038;2022-11-06T20:31:33;8.7;;;5.5;;
61739;SDS011;47645;45.288;12.038;2022-11-06T20:41:34;7.4;;;5.1;;
61739;SDS011;47645;45.288;12.038;2022-11-06T20:51:34;7.0;;;5.1;;
61739;SDS011;47645;45.288;12.038;2022-11-06T21:01:35;12.4;;;6.9;;
61739;SDS011;47645;45.288;12.038;2022-11-06T21:11:36;7.3;;;5.3;;
61739;SDS011;47645;45.288;12.038;2022-11-06T21:21:36;6.7;;;4.7;;
61739;SDS011;47645;45.288;12.038;2022-11-06T21:31:38;10.7;;;6.7;;
61739;SDS011;47645;45.288;12.038;2022-11-06T21:41:38;7.5;;;4.7;;
61739;SDS011;47645;45.288;12.038;2022-11-06T21:51:38;7.3;;;4.5;;
61739;SDS011;47645;45.288;12.038;2022-11-06T22:01:41;14.3;;;7.3;;
61739;SDS011;47645;45.288;12.038;2022-11-06T22:11:41;7.7;;;4.8;;
61739;SDS011;47645;45.288;12.038;2022-11-06T22:21:41;8.3;;;5.1;;
61739;SDS011;47645;45.288;12.038;2022-11-06T22:31:41;12.2;;;7.2;;
61739;SDS011;47645;45.288;12.038;2022-11-06T22:41:42;7.1;;;5.2;;
61739;SDS011;47645;45.288;12.038;2022-11-06T22:51:43;11.0;;;5.7;;
61739;SDS011;47645;45.288;12.038;2022-11-06T23:01:44;10.3;;;6.3;;
61739;SDS011;47645;45.288;12.038;2022-11-06T23:11:44;10.9;;;6.7;;
61739;SDS011;47645;45.288;12.038;2022-11-06T23:21:44;8.5;;;5.9;;
61739;SDS011;47645;45.288;12.038;2022-11-06T23:31:45;9.7;;;6.3;;
61739;SDS011;47645;45.288;12.038;2022-11-06T23:41:45;9.2;;;6.6;;
61739;SDS011;47645;45.288;12.038;2022-11-06T23:51:46;9.6;;;6.0;;
